
Distance (Route):
Temperature : -17.0°C
Humidity : 47.5%
Pressure : 0hPa| Receiver | Date | Latitude | Longitude | Direction | Speed | Altitude | Climb | Temperature | Humidity | Pressure | Voltage | Killtimer | Uptime | BKT | XDATA |
|---|---|---|---|---|---|---|---|---|---|---|---|---|---|---|---|
| LZ4TU-5 | 2026-09-02 12:54:35 | 44.90006 | 21.33379 | 92° | 64km/h | 6534m | -17.0m/s | -17.0°C | 47.5% | 0hPa | 5.5V | 00:00:00 | 00:00:00 | 00:00:00 | |
| LZ4TU-5 | 2026-09-02 12:54:30 | 44.90006 | 21.33261 | 90° | 68km/h | 6617m | -17.1m/s | -17.7°C | 47.6% | 0hPa | 5.5V | 00:00:00 | 00:00:00 | 00:00:00 | |
| LZ4TU-5 | 2026-09-02 12:54:26 | 44.90007 | 21.33167 | 91° | 66km/h | 6675m | -17.3m/s | -18.0°C | 35.3% | 0hPa | 5.5V | 00:00:00 | 00:00:00 | 00:00:00 | |
| LZ4TU-5 | 2026-09-02 12:50:18 | 44.88572 | 21.24825 | 72° | 113km/h | 11521m | -23.1m/s | -52.2°C | 20.7% | 0hPa | 5.5V | 00:00:00 | 00:00:00 | 00:00:00 | |
| LZ4TU-5 | 2026-09-02 12:50:13 | 44.88523 | 21.24630 | 71° | 117km/h | 11639m | -23.4m/s | -53.0°C | 18.6% | 0hPa | 5.5V | 00:00:00 | 00:00:00 | 00:00:00 | |
| 9A1FER-15 | 2026-09-02 12:42:16 | 44.87351 | 21.17714 | 316° | 15km/h | 31048m | -55.3m/s | -39.3°C | 0% | 0hPa | 5.5V | 00:00:00 | 00:00:00 | 00:00:00 | |
| 9A1FER-15 | 2026-09-02 12:42:00 | 44.87322 | 21.17699 | 352° | 24km/h | 31428m | 8.4m/s | -38.6°C | 0% | 0hPa | 5.5V | 00:00:00 | 00:00:00 | 00:00:00 | |
| 9A1FER-15 | 2026-09-02 12:41:01 | 44.87312 | 21.17766 | 357° | 9km/h | 30999m | 9.5m/s | -39.2°C | 0% | 0hPa | 5.5V | 00:00:00 | 00:00:00 | 00:00:00 | |
| 9A1FER-15 | 2026-09-02 12:39:48 | 44.87036 | 21.17632 | 5° | 37km/h | 30500m | 4.9m/s | -39.5°C | 0% | 0hPa | 5.5V | 00:00:00 | 00:00:00 | 00:00:00 | |
| 9A1FER-15 | 2026-09-02 12:39:33 | 44.86937 | 21.17666 | 313° | 26km/h | 30397m | 6.2m/s | -40.1°C | 0% | 0hPa | 5.5V | 00:00:00 | 00:00:00 | 00:00:00 | |
| OM5KV | 2026-09-02 12:38:56 | 44.86848 | 21.17720 | 106° | 26km/h | 30140m | 6.3m/s | -41.4°C | 2.1% | 0hPa | 5.5V | 00:00:00 | 00:00:00 | 00:00:00 | |
| OM5KV | 2026-09-02 12:38:51 | 44.86838 | 21.17699 | 352° | 13km/h | 30104m | 8.8m/s | -41.2°C | 2.0% | 0hPa | 5.5V | 00:00:00 | 00:00:00 | 00:00:00 | |
| OM5KV | 2026-09-02 12:38:46 | 44.86822 | 21.17708 | 339° | 16km/h | 30069m | 6.0m/s | -40.7°C | 1.9% | 0hPa | 5.5V | 00:00:00 | 00:00:00 | 00:00:00 | |
| OM5KV | 2026-09-02 12:38:40 | 44.86814 | 21.17685 | 36° | 15km/h | 30025m | 7.1m/s | -40.8°C | 1.9% | 0hPa | 5.5V | 00:00:00 | 00:00:00 | 00:00:00 | |
| OM5KV | 2026-09-02 12:38:39 | 44.86811 | 21.17683 | 3° | 16km/h | 30020m | 5.2m/s | -40.8°C | 1.9% | 0hPa | 5.5V | 00:00:00 | 00:00:00 | 00:00:00 | |
| OM5KV | 2026-09-02 12:38:35 | 44.86802 | 21.17701 | 285° | 20km/h | 29991m | 5.3m/s | -40.7°C | 1.8% | 0hPa | 5.5V | 00:00:00 | 00:00:00 | 00:00:00 | |
| OM5KV | 2026-09-02 12:38:34 | 44.86800 | 21.17707 | 308° | 15km/h | 29983m | 8.0m/s | -40.7°C | 1.8% | 0hPa | 5.5V | 00:00:00 | 00:00:00 | 00:00:00 | |
| OM5KV | 2026-09-02 12:38:29 | 44.86793 | 21.17687 | 142° | 9km/h | 29946m | 7.6m/s | -40.9°C | 1.9% | 0hPa | 5.5V | 00:00:00 | 00:00:00 | 00:00:00 | |
| OM5KV | 2026-09-02 12:38:23 | 44.86780 | 21.17713 | 331° | 24km/h | 29903m | 8.3m/s | -40.6°C | 1.8% | 0hPa | 5.5V | 00:00:00 | 00:00:00 | 00:00:00 | |
| OM5KV | 2026-09-02 12:38:22 | 44.86775 | 21.17715 | 9° | 15km/h | 29896m | 6.8m/s | -40.7°C | 1.8% | 0hPa | 5.5V | 00:00:00 | 00:00:00 | 00:00:00 | |
| OM5KV | 2026-09-02 12:38:10 | 44.86742 | 21.17695 | 16° | 31km/h | 29808m | 8.2m/s | -41.0°C | 1.8% | 0hPa | 5.5V | 00:00:00 | 00:00:00 | 00:00:00 | |
| OM5KV | 2026-09-02 12:38:09 | 44.86735 | 21.17694 | 1° | 31km/h | 29800m | 7.2m/s | -40.9°C | 1.8% | 0hPa | 5.5V | 00:00:00 | 00:00:00 | 00:00:00 | |
| OM5KV | 2026-09-02 12:38:03 | 44.86725 | 21.17692 | 198° | 13km/h | 29753m | 8.3m/s | -40.8°C | 1.7% | 0hPa | 5.5V | 00:00:00 | 00:00:00 | 00:00:00 | |
| OM5KV | 2026-09-02 12:37:53 | 44.86709 | 21.17678 | 290° | 2km/h | 29673m | 7.4m/s | -40.9°C | 1.7% | 0hPa | 5.5V | 00:00:00 | 00:00:00 | 00:00:00 | |
| OM5KV | 2026-09-02 12:37:48 | 44.86708 | 21.17682 | 0° | 0km/h | 29644m | 6.1m/s | -41.0°C | 1.7% | 0hPa | 5.5V | 00:00:00 | 00:00:00 | 00:00:00 | |
| OM5KV | 2026-09-02 12:37:42 | 44.86706 | 21.17658 | 70° | 11km/h | 29601m | 8.9m/s | -41.9°C | 1.9% | 0hPa | 5.5V | 00:00:00 | 00:00:00 | 00:00:00 | |
| OM5KV | 2026-09-02 12:37:39 | 44.86700 | 21.17664 | 311° | 18km/h | 29579m | 7.6m/s | -42.0°C | 1.9% | 0hPa | 5.5V | 00:00:00 | 00:00:00 | 00:00:00 | |
| OM5KV | 2026-09-02 12:37:34 | 44.86688 | 21.17652 | 102° | 16km/h | 29539m | 7.7m/s | -42.2°C | 1.9% | 0hPa | 5.5V | 00:00:00 | 00:00:00 | 00:00:00 | |
| OM5KV | 2026-09-02 12:37:31 | 44.86691 | 21.17635 | 63° | 13km/h | 29517m | 8.5m/s | -41.9°C | 1.8% | 0hPa | 5.5V | 00:00:00 | 00:00:00 | 00:00:00 | |
| OM5KV | 2026-09-02 12:37:25 | 44.86674 | 21.17620 | 51° | 16km/h | 29472m | 8.4m/s | -41.9°C | 1.8% | 0hPa | 5.5V | 00:00:00 | 00:00:00 | 00:00:00 | |
| OM5KV | 2026-09-02 12:37:23 | 44.86668 | 21.17614 | 23° | 9km/h | 29458m | 5.4m/s | -42.2°C | 1.8% | 0hPa | 5.5V | 00:00:00 | 00:00:00 | 00:00:00 | |
| OM5KV | 2026-09-02 12:37:17 | 44.86664 | 21.17617 | 333° | 24km/h | 29412m | 8.1m/s | -41.8°C | 1.7% | 0hPa | 5.5V | 00:00:00 | 00:00:00 | 00:00:00 | |
| OM5KV | 2026-09-02 12:37:14 | 44.86645 | 21.17620 | 27° | 26km/h | 29390m | 7.8m/s | -42.0°C | 1.7% | 0hPa | 5.5V | 00:00:00 | 00:00:00 | 00:00:00 | |
| OM5KV | 2026-09-02 12:37:06 | 44.86635 | 21.17617 | 278° | 20km/h | 29332m | 7.8m/s | -42.5°C | 1.8% | 0hPa | 5.5V | 00:00:00 | 00:00:00 | 00:00:00 | |
| OM5KV | 2026-09-02 12:37:00 | 44.86605 | 21.17636 | 92° | 7km/h | 29287m | 7.8m/s | -42.2°C | 1.7% | 0hPa | 5.5V | 00:00:00 | 00:00:00 | 00:00:00 | |
| OM5KV | 2026-09-02 12:36:55 | 44.86605 | 21.17634 | 303° | 15km/h | 29251m | 8.3m/s | -42.7°C | 1.8% | 0hPa | 5.5V | 00:00:00 | 00:00:00 | 00:00:00 | |
| OM5KV | 2026-09-02 12:36:50 | 44.86584 | 21.17668 | 5° | 22km/h | 29215m | 8.2m/s | -42.5°C | 1.7% | 0hPa | 5.5V | 00:00:00 | 00:00:00 | 00:00:00 | |
| OM5KV | 2026-09-02 12:36:44 | 44.86575 | 21.17669 | 273° | 16km/h | 29162m | 7.7m/s | -42.6°C | 1.6% | 0hPa | 5.5V | 00:00:00 | 00:00:00 | 00:00:00 | |
| OM5KV | 2026-09-02 12:36:37 | 44.86558 | 21.17679 | 48° | 20km/h | 29125m | 5.0m/s | -43.0°C | 1.8% | 0hPa | 5.5V | 00:00:00 | 00:00:00 | 00:00:00 | |
| OM5KV | 2026-09-02 12:36:33 | 44.86564 | 21.17663 | 147° | 16km/h | 29096m | 7.3m/s | -43.4°C | 1.9% | 0hPa | 5.5V | 00:00:00 | 00:00:00 | 00:00:00 | |
| OM5KV | 2026-09-02 12:36:32 | 44.86566 | 21.17660 | 115° | 11km/h | 29087m | 8.4m/s | -43.5°C | 1.9% | 0hPa | 5.5V | 00:00:00 | 00:00:00 | 00:00:00 | |
| OM5KV | 2026-09-02 12:36:28 | 44.86558 | 21.17647 | 33° | 11km/h | 29062m | 8.1m/s | -43.4°C | 1.9% | 0hPa | 5.5V | 00:00:00 | 00:00:00 | 00:00:00 | |
| OM5KV | 2026-09-02 12:36:25 | 44.86556 | 21.17644 | 91° | 2km/h | 29041m | 7.2m/s | -43.3°C | 1.8% | 0hPa | 5.5V | 00:00:00 | 00:00:00 | 00:00:00 | |
| OM5KV | 2026-09-02 12:36:19 | 44.86556 | 21.17623 | 356° | 13km/h | 29004m | 4.2m/s | -43.3°C | 1.8% | 0hPa | 5.5V | 00:00:00 | 00:00:00 | 00:00:00 | |
| OM5KV | 2026-09-02 12:36:13 | 44.86521 | 21.17619 | 357° | 15km/h | 28963m | 7.8m/s | -43.5°C | 1.8% | 0hPa | 5.5V | 00:00:00 | 00:00:00 | 00:00:00 | |
| OM5KV | 2026-09-02 12:36:02 | 44.86477 | 21.17624 | 329° | 29km/h | 28891m | 5.5m/s | -42.9°C | 1.8% | 0hPa | 5.5V | 00:00:00 | 00:00:00 | 00:00:00 | |
| OM5KV | 2026-09-02 12:35:56 | 44.86468 | 21.17607 | 356° | 16km/h | 28850m | 4.4m/s | -42.6°C | 1.7% | 0hPa | 5.5V | 00:00:00 | 00:00:00 | 00:00:00 | |
| OM5KV | 2026-09-02 12:35:55 | 44.86463 | 21.17608 | 349° | 26km/h | 28843m | 7.3m/s | -42.6°C | 1.6% | 0hPa | 5.5V | 00:00:00 | 00:00:00 | 00:00:00 | |
| OM5KV | 2026-09-02 12:35:50 | 44.86416 | 21.17633 | 322° | 27km/h | 28810m | 6.6m/s | -42.6°C | 1.6% | 0hPa | 5.5V | 00:00:00 | 00:00:00 | 00:00:00 | |
| OM5KV | 2026-09-02 12:35:48 | 44.86413 | 21.17641 | 220° | 5km/h | 28794m | 7.7m/s | -42.7°C | 1.6% | 0hPa | 5.5V | 00:00:00 | 00:00:00 | 00:00:00 | |
| OM5KV | 2026-09-02 12:35:43 | 44.86397 | 21.17636 | 346° | 27km/h | 28762m | 6.0m/s | -43.3°C | 1.9% | 0hPa | 5.5V | 00:00:00 | 00:00:00 | 00:00:00 | |
| OM5KV | 2026-09-02 12:35:42 | 44.86391 | 21.17640 | 329° | 26km/h | 28755m | 6.9m/s | -43.4°C | 1.9% | 0hPa | 5.5V | 00:00:00 | 00:00:00 | 00:00:00 | |
| OM5KV | 2026-09-02 12:35:36 | 44.86369 | 21.17661 | 287° | 5km/h | 28717m | 5.0m/s | -43.3°C | 1.8% | 0hPa | 5.5V | 00:00:00 | 00:00:00 | 00:00:00 | |
| OM5KV | 2026-09-02 12:35:13 | 44.86352 | 21.17714 | 201° | 7km/h | 28561m | 7.4m/s | -42.6°C | 1.9% | 0hPa | 5.5V | 00:00:00 | 00:00:00 | 00:00:00 | |
| OM5KV | 2026-09-02 12:35:11 | 44.86355 | 21.17708 | 74° | 7km/h | 28543m | 7.5m/s | -42.2°C | 1.8% | 0hPa | 5.5V | 00:00:00 | 00:00:00 | 00:00:00 | |
| OM5KV | 2026-09-02 12:35:07 | 44.86345 | 21.17711 | 326° | 22km/h | 28523m | 5.9m/s | -42.2°C | 1.7% | 0hPa | 5.5V | 00:00:00 | 00:00:00 | 00:00:00 | |
| OM5KV | 2026-09-02 12:35:02 | 44.86334 | 21.17714 | 13° | 11km/h | 28488m | 7.7m/s | -42.9°C | 2.0% | 0hPa | 5.5V | 00:00:00 | 00:00:00 | 00:00:00 | |
| OM5KV | 2026-09-02 12:34:57 | 44.86327 | 21.17715 | 0° | 0km/h | 28456m | 4.6m/s | -43.0°C | 2.0% | 0hPa | 5.5V | 00:00:00 | 00:00:00 | 00:00:00 | |
| OM5KV | 2026-09-02 12:34:51 | 44.86311 | 21.17730 | 292° | 5km/h | 28413m | 6.4m/s | -42.4°C | 1.8% | 0hPa | 5.5V | 00:00:00 | 00:00:00 | 00:00:00 | |
| OM5KV | 2026-09-02 12:34:50 | 44.86312 | 21.17731 | 184° | 7km/h | 28407m | 5.7m/s | -42.4°C | 1.8% | 0hPa | 5.5V | 00:00:00 | 00:00:00 | 00:00:00 | |
| OM5KV | 2026-09-02 12:34:46 | 44.86313 | 21.17726 | 23° | 7km/h | 28377m | 7.1m/s | -42.5°C | 1.7% | 0hPa | 5.5V | 00:00:00 | 00:00:00 | 00:00:00 | |
| OM5KV | 2026-09-02 12:34:43 | 44.86311 | 21.17722 | 82° | 5km/h | 28356m | 7.5m/s | -42.7°C | 1.8% | 0hPa | 5.5V | 00:00:00 | 00:00:00 | 00:00:00 | |
| OM5KV | 2026-09-02 12:34:40 | 44.86306 | 21.17716 | 36° | 7km/h | 28333m | 7.3m/s | -42.8°C | 1.8% | 0hPa | 5.5V | 00:00:00 | 00:00:00 | 00:00:00 | |
| OM5KV | 2026-09-02 12:34:36 | 44.86312 | 21.17712 | 215° | 4km/h | 28306m | 7.4m/s | -42.8°C | 1.9% | 0hPa | 5.5V | 00:00:00 | 00:00:00 | 00:00:00 | |
| OM5KV | 2026-09-02 12:34:35 | 44.86311 | 21.17714 | 317° | 9km/h | 28298m | 8.6m/s | -42.8°C | 1.8% | 0hPa | 5.5V | 00:00:00 | 00:00:00 | 00:00:00 | |
| OM5KV | 2026-09-02 12:34:28 | 44.86303 | 21.17709 | 85° | 7km/h | 28248m | 5.5m/s | -43.2°C | 1.9% | 0hPa | 5.5V | 00:00:00 | 00:00:00 | 00:00:00 | |
| OM5KV | 2026-09-02 12:34:25 | 44.86308 | 21.17701 | 156° | 15km/h | 28228m | 6.1m/s | -42.9°C | 1.9% | 0hPa | 5.5V | 00:00:00 | 00:00:00 | 00:00:00 | |
| OM5KV | 2026-09-02 12:34:18 | 44.86306 | 21.17696 | 204° | 11km/h | 28178m | 7.7m/s | -43.3°C | 1.9% | 0hPa | 5.5V | 00:00:00 | 00:00:00 | 00:00:00 | |
| OM5KV | 2026-09-02 12:34:16 | 44.86314 | 21.17700 | 196° | 15km/h | 28165m | 6.7m/s | -43.3°C | 1.9% | 0hPa | 5.5V | 00:00:00 | 00:00:00 | 00:00:00 | |
| OM5KV | 2026-09-02 12:34:12 | 44.86319 | 21.17693 | 107° | 13km/h | 28137m | 9.1m/s | -43.1°C | 1.8% | 0hPa | 5.5V | 00:00:00 | 00:00:00 | 00:00:00 | |
| OE3JTB-15 | 2026-09-02 12:34:08 | 44.86319 | 21.17665 | 129° | 20km/h | 28089m | 7.9m/s | -42.7°C | 0% | 0hPa | 5.5V | 00:00:00 | 00:00:00 | 00:00:00 | |
| OM5KV | 2026-09-02 12:34:04 | 44.86322 | 21.17660 | 131° | 18km/h | 28084m | 4.6m/s | -43.3°C | 1.8% | 0hPa | 5.5V | 00:00:00 | 00:00:00 | 00:00:00 | |
| OM5KV | 2026-09-02 12:33:59 | 44.86317 | 21.17646 | 28° | 16km/h | 28052m | 5.4m/s | -42.9°C | 1.7% | 0hPa | 5.5V | 00:00:00 | 00:00:00 | 00:00:00 | |
| OM5KV | 2026-09-02 12:33:53 | 44.86316 | 21.17608 | 142° | 13km/h | 28008m | 4.3m/s | -43.3°C | 1.7% | 0hPa | 5.5V | 00:00:00 | 00:00:00 | 00:00:00 | |
| OM5KV | 2026-09-02 12:33:45 | 44.86315 | 21.17579 | 96° | 22km/h | 27951m | 9.3m/s | -43.2°C | 1.7% | 0hPa | 5.5V | 00:00:00 | 00:00:00 | 00:00:00 | |
| OM5KV | 2026-09-02 12:33:34 | 44.86311 | 21.17547 | 91° | 35km/h | 27876m | 11.5m/s | -43.1°C | 1.7% | 0hPa | 5.5V | 00:00:00 | 00:00:00 | 00:00:00 | |
| OE3JTB-15 | 2026-09-02 12:33:33 | 44.86326 | 21.17495 | 120° | 18km/h | 27854m | 5.5m/s | -43.0°C | 0% | 0hPa | 5.5V | 00:00:00 | 00:00:00 | 00:00:00 | |
| OM5KV | 2026-09-02 12:33:29 | 44.86328 | 21.17489 | 115° | 13km/h | 27846m | 8.1m/s | -43.6°C | 1.8% | 0hPa | 5.5V | 00:00:00 | 00:00:00 | 00:00:00 | |
| OM5KV | 2026-09-02 12:33:23 | 44.86312 | 21.17508 | 85° | 11km/h | 27800m | 8.4m/s | -43.9°C | 1.9% | 0hPa | 5.5V | 00:00:00 | 00:00:00 | 00:00:00 | |
| OM5KV | 2026-09-02 12:33:11 | 44.86297 | 21.17456 | 106° | 11km/h | 27716m | 4.7m/s | -44.2°C | 1.6% | 0hPa | 5.5V | 00:00:00 | 00:00:00 | 00:00:00 | |
| OM5KV | 2026-09-02 12:33:10 | 44.86298 | 21.17451 | 105° | 18km/h | 27709m | 7.6m/s | -44.3°C | 1.6% | 0hPa | 5.5V | 00:00:00 | 00:00:00 | 00:00:00 | |
| OM5KV | 2026-09-02 12:33:06 | 44.86304 | 21.17406 | 96° | 24km/h | 27686m | 4.5m/s | -44.5°C | 1.7% | 0hPa | 5.5V | 00:00:00 | 00:00:00 | 00:00:00 | |
| OM5KV | 2026-09-02 12:33:03 | 44.86301 | 21.17406 | 302° | 22km/h | 27659m | 7.3m/s | -44.6°C | 1.7% | 0hPa | 5.5V | 00:00:00 | 00:00:00 | 00:00:00 | |
| OM5KV | 2026-09-02 12:32:58 | 44.86290 | 21.17416 | 87° | 15km/h | 27626m | 6.8m/s | -44.4°C | 1.7% | 0hPa | 5.5V | 00:00:00 | 00:00:00 | 00:00:00 | |
| OM5KV | 2026-09-02 12:32:54 | 44.86280 | 21.17382 | 92° | 9km/h | 27591m | 8.7m/s | -44.4°C | 1.7% | 0hPa | 5.5V | 00:00:00 | 00:00:00 | 00:00:00 | |
| OM5KV | 2026-09-02 12:32:52 | 44.86280 | 21.17380 | 170° | 9km/h | 27583m | 7.7m/s | -44.5°C | 1.7% | 0hPa | 5.5V | 00:00:00 | 00:00:00 | 00:00:00 | |
| OM5KV | 2026-09-02 12:32:46 | 44.86281 | 21.17376 | 54° | 16km/h | 27541m | 8.2m/s | -44.6°C | 1.7% | 0hPa | 5.5V | 00:00:00 | 00:00:00 | 00:00:00 | |
| OM5KV | 2026-09-02 12:32:38 | 44.86286 | 21.17369 | 91° | 7km/h | 27481m | 8.0m/s | -44.6°C | 1.6% | 0hPa | 5.5V | 00:00:00 | 00:00:00 | 00:00:00 | |
| OM5KV | 2026-09-02 12:32:34 | 44.86282 | 21.17352 | 76° | 24km/h | 27459m | 9.3m/s | -44.5°C | 1.6% | 0hPa | 5.5V | 00:00:00 | 00:00:00 | 00:00:00 | |
| OM5KV | 2026-09-02 12:32:32 | 44.86280 | 21.17337 | 85° | 13km/h | 27448m | 4.8m/s | -44.8°C | 1.6% | 0hPa | 5.5V | 00:00:00 | 00:00:00 | 00:00:00 | |
| OM5KV | 2026-09-02 12:32:29 | 44.86276 | 21.17337 | 315° | 16km/h | 27426m | 7.5m/s | -45.1°C | 1.7% | 0hPa | 5.5V | 00:00:00 | 00:00:00 | 00:00:00 | |
| OM5KV | 2026-09-02 12:32:26 | 44.86273 | 21.17348 | 198° | 5km/h | 27407m | 8.9m/s | -45.0°C | 1.6% | 0hPa | 5.5V | 00:00:00 | 00:00:00 | 00:00:00 | |
| OM5KV | 2026-09-02 12:32:23 | 44.86280 | 21.17338 | 120° | 11km/h | 27387m | 9.4m/s | -45.0°C | 1.6% | 0hPa | 5.5V | 00:00:00 | 00:00:00 | 00:00:00 | |
| OM5KV | 2026-09-02 12:32:22 | 44.86280 | 21.17336 | 0° | 0km/h | 27381m | 5.7m/s | -45.1°C | 1.6% | 0hPa | 5.5V | 00:00:00 | 00:00:00 | 00:00:00 | |
| OM5KV | 2026-09-02 12:32:19 | 44.86277 | 21.17332 | 40° | 13km/h | 27359m | 8.8m/s | -45.4°C | 1.7% | 0hPa | 5.5V | 00:00:00 | 00:00:00 | 00:00:00 | |
| OM5KV | 2026-09-02 12:32:18 | 44.86274 | 21.17330 | 28° | 13km/h | 27354m | 4.1m/s | -45.3°C | 1.7% | 0hPa | 5.5V | 00:00:00 | 00:00:00 | 00:00:00 | |
| OM5KV | 2026-09-02 12:32:13 | 44.86269 | 21.17334 | 62° | 4km/h | 27316m | 9.6m/s | -45.2°C | 1.6% | 0hPa | 5.5V | 00:00:00 | 00:00:00 | 00:00:00 | |
| OM5KV | 2026-09-02 12:32:12 | 44.86266 | 21.17328 | 54° | 11km/h | 27308m | 3.0m/s | -45.4°C | 1.7% | 0hPa | 5.5V | 00:00:00 | 00:00:00 | 00:00:00 | |
| OM5KV | 2026-09-02 12:32:05 | 44.86250 | 21.17332 | 343° | 13km/h | 27265m | 5.3m/s | -45.3°C | 1.6% | 0hPa | 5.5V | 00:00:00 | 00:00:00 | 00:00:00 | |
| OM5KV | 2026-09-02 12:31:56 | 44.86251 | 21.17321 | 286° | 4km/h | 27202m | 8.1m/s | -45.2°C | 1.6% | 0hPa | 5.5V | 00:00:00 | 00:00:00 | 00:00:00 | |
| OM5KV | 2026-09-02 12:31:53 | 44.86254 | 21.17336 | 245° | 13km/h | 27182m | 7.6m/s | -44.9°C | 1.5% | 0hPa | 5.5V | 00:00:00 | 00:00:00 | 00:00:00 | |
| OM5KV | 2026-09-02 12:31:45 | 44.86264 | 21.17308 | 202° | 15km/h | 27128m | 5.8m/s | -45.1°C | 1.5% | 0hPa | 5.5V | 00:00:00 | 00:00:00 | 00:00:00 | |
| OM5KV | 2026-09-02 12:31:42 | 44.86269 | 21.17319 | 272° | 5km/h | 27107m | 5.3m/s | -45.1°C | 1.5% | 0hPa | 5.5V | 00:00:00 | 00:00:00 | 00:00:00 | |
| OM5KV | 2026-09-02 12:31:39 | 44.86272 | 21.17314 | 116° | 15km/h | 27086m | 5.8m/s | -44.7°C | 1.4% | 0hPa | 5.5V | 00:00:00 | 00:00:00 | 00:00:00 | |
| OE3JTB-15 | 2026-09-02 12:31:36 | 44.86273 | 21.17297 | 283° | 15km/h | 27047m | 5.4m/s | -44.1°C | 0% | 0hPa | 5.5V | 00:00:00 | 00:00:00 | 00:00:00 | |
| OM5KV | 2026-09-02 12:31:32 | 44.86273 | 21.17299 | 286° | 11km/h | 27041m | 5.4m/s | -44.6°C | 1.3% | 0hPa | 5.5V | 00:00:00 | 00:00:00 | 00:00:00 | |
| OM5KV | 2026-09-02 12:31:28 | 44.86279 | 21.17317 | 190° | 11km/h | 27012m | 8.9m/s | -45.0°C | 1.3% | 0hPa | 5.5V | 00:00:00 | 00:00:00 | 00:00:00 | |
| OM5KV | 2026-09-02 12:31:22 | 44.86285 | 21.17303 | 318° | 13km/h | 26971m | 8.8m/s | -45.1°C | 1.4% | 0hPa | 5.5V | 00:00:00 | 00:00:00 | 00:00:00 | |
| OM5KV | 2026-09-02 12:31:17 | 44.86273 | 21.17330 | 241° | 11km/h | 26936m | 6.6m/s | -44.7°C | 1.2% | 0hPa | 5.5V | 00:00:00 | 00:00:00 | 00:00:00 | |
| OM5KV | 2026-09-02 12:31:06 | 44.86284 | 21.17335 | 218° | 13km/h | 26863m | 7.5m/s | -45.4°C | 1.4% | 0hPa | 5.5V | 00:00:00 | 00:00:00 | 00:00:00 | |
| OE3JTB-15 | 2026-09-02 12:31:05 | 44.86306 | 21.17331 | 145° | 15km/h | 26841m | 3.0m/s | -45.5°C | 0% | 0hPa | 5.5V | 00:00:00 | 00:00:00 | 00:00:00 | |
| OM5KV | 2026-09-02 12:30:53 | 44.86295 | 21.17324 | 166° | 9km/h | 26776m | 6.7m/s | -46.1°C | 1.5% | 0hPa | 5.6V | 00:00:00 | 00:00:00 | 00:00:00 | |
| OM5KV | 2026-09-02 12:30:49 | 44.86302 | 21.17312 | 59° | 15km/h | 26753m | 4.7m/s | -45.9°C | 1.4% | 0hPa | 5.6V | 00:00:00 | 00:00:00 | 00:00:00 | |
| OM5KV | 2026-09-02 12:30:44 | 44.86278 | 21.17325 | 331° | 18km/h | 26718m | 7.3m/s | -45.5°C | 1.1% | 0hPa | 5.6V | 00:00:00 | 00:00:00 | 00:00:00 | |
| OM5KV | 2026-09-02 12:30:43 | 44.86274 | 21.17325 | 18° | 9km/h | 26711m | 6.3m/s | -45.6°C | 1.1% | 0hPa | 5.6V | 00:00:00 | 00:00:00 | 00:00:00 | |
| OM5KV | 2026-09-02 12:30:34 | 44.86266 | 21.17333 | 355° | 24km/h | 26654m | 5.7m/s | -46.6°C | 1.4% | 0hPa | 5.6V | 00:00:00 | 00:00:00 | 00:00:00 | |
| OM5KV | 2026-09-02 12:30:33 | 44.86260 | 21.17334 | 354° | 18km/h | 26649m | 5.0m/s | -46.6°C | 1.4% | 0hPa | 5.6V | 00:00:00 | 00:00:00 | 00:00:00 | |
| OM5KV | 2026-09-02 12:30:30 | 44.86257 | 21.17344 | 212° | 13km/h | 26620m | 7.9m/s | -47.0°C | 1.4% | 0hPa | 5.6V | 00:00:00 | 00:00:00 | 00:00:00 | |
| OM5KV | 2026-09-02 12:30:25 | 44.86268 | 21.17353 | 217° | 15km/h | 26594m | 7.5m/s | -47.4°C | 1.5% | 0hPa | 5.6V | 00:00:00 | 00:00:00 | 00:00:00 | |
| OM5KV | 2026-09-02 12:30:23 | 44.86272 | 21.17356 | 179° | 2km/h | 26580m | 8.5m/s | -47.4°C | 1.4% | 0hPa | 5.6V | 00:00:00 | 00:00:00 | 00:00:00 | |
| OM5KV | 2026-09-02 12:30:19 | 44.86279 | 21.17351 | 189° | 27km/h | 26548m | 7.2m/s | -46.9°C | 1.4% | 0hPa | 5.6V | 00:00:00 | 00:00:00 | 00:00:00 | |
| OM5KV | 2026-09-02 12:30:18 | 44.86286 | 21.17352 | 188° | 31km/h | 26541m | 6.3m/s | -47.0°C | 1.3% | 0hPa | 5.6V | 00:00:00 | 00:00:00 | 00:00:00 | |
| OM5KV | 2026-09-02 12:30:12 | 44.86306 | 21.17361 | 120° | 4km/h | 26510m | 7.2m/s | -46.8°C | 1.3% | 0hPa | 5.6V | 00:00:00 | 00:00:00 | 00:00:00 | |
| OM5KV | 2026-09-02 12:30:11 | 44.86307 | 21.17359 | 113° | 9km/h | 26502m | 8.4m/s | -46.6°C | 1.2% | 0hPa | 5.6V | 00:00:00 | 00:00:00 | 00:00:00 | |
| OM5KV | 2026-09-02 12:30:06 | 44.86314 | 21.17334 | 137° | 20km/h | 26471m | 7.6m/s | -47.2°C | 1.3% | 0hPa | 5.6V | 00:00:00 | 00:00:00 | 00:00:00 | |
| OM5KV | 2026-09-02 12:30:05 | 44.86319 | 21.17331 | 167° | 20km/h | 26462m | 8.9m/s | -46.9°C | 1.2% | 0hPa | 5.6V | 00:00:00 | 00:00:00 | 00:00:00 | |
| OM5KV | 2026-09-02 12:29:49 | 44.86330 | 21.17324 | 133° | 11km/h | 26357m | 7.4m/s | -47.6°C | 1.3% | 0hPa | 5.6V | 00:00:00 | 00:00:00 | 00:00:00 | |
| OM5KV | 2026-09-02 12:29:36 | 44.86342 | 21.17280 | 161° | 20km/h | 26270m | 4.8m/s | -47.8°C | 1.3% | 0hPa | 5.6V | 00:00:00 | 00:00:00 | 00:00:00 | |
| OM5KV | 2026-09-02 12:29:34 | 44.86351 | 21.17275 | 147° | 16km/h | 26256m | 8.7m/s | -48.1°C | 1.3% | 0hPa | 5.6V | 00:00:00 | 00:00:00 | 00:00:00 | |
| OM5KV | 2026-09-02 12:29:27 | 44.86363 | 21.17249 | 177° | 7km/h | 26213m | 5.9m/s | -47.9°C | 1.2% | 0hPa | 5.6V | 00:00:00 | 00:00:00 | 00:00:00 | |
| OM5KV | 2026-09-02 12:29:21 | 44.86366 | 21.17214 | 104° | 15km/h | 26174m | 5.3m/s | -47.9°C | 1.3% | 0hPa | 5.6V | 00:00:00 | 00:00:00 | 00:00:00 | |
| OE3JTB-15 | 2026-09-02 12:29:13 | 44.86354 | 21.17179 | 56° | 24km/h | 26102m | 5.0m/s | -47.3°C | 0% | 0hPa | 5.6V | 00:00:00 | 00:00:00 | 00:00:00 | |
| OM5KV | 2026-09-02 12:29:06 | 44.86347 | 21.17148 | 89° | 20km/h | 26074m | 5.1m/s | -48.3°C | 1.2% | 0hPa | 5.6V | 00:00:00 | 00:00:00 | 00:00:00 | |
| OM5KV | 2026-09-02 12:29:05 | 44.86346 | 21.17143 | 68° | 13km/h | 26069m | 6.0m/s | -48.3°C | 1.3% | 0hPa | 5.6V | 00:00:00 | 00:00:00 | 00:00:00 | |
| OM5KV | 2026-09-02 12:29:00 | 44.86338 | 21.17137 | 99° | 16km/h | 26035m | 6.1m/s | -48.5°C | 1.3% | 0hPa | 5.6V | 00:00:00 | 00:00:00 | 00:00:00 | |
| OM5KV | 2026-09-02 12:28:55 | 44.86327 | 21.17082 | 68° | 38km/h | 26001m | 7.5m/s | -48.8°C | 1.4% | 0hPa | 5.6V | 00:00:00 | 00:00:00 | 00:00:00 | |
| OM5KV | 2026-09-02 12:28:54 | 44.86323 | 21.17071 | 66° | 33km/h | 25995m | 5.7m/s | -48.7°C | 1.4% | 0hPa | 5.6V | 00:00:00 | 00:00:00 | 00:00:00 | |
| OM5KV | 2026-09-02 12:28:50 | 44.86304 | 21.17049 | 14° | 22km/h | 25968m | 5.6m/s | -48.4°C | 1.4% | 0hPa | 5.6V | 00:00:00 | 00:00:00 | 00:00:00 | |
| OM5KV | 2026-09-02 12:28:47 | 44.86293 | 21.17038 | 64° | 22km/h | 25950m | 4.3m/s | -48.2°C | 1.2% | 0hPa | 5.6V | 00:00:00 | 00:00:00 | 00:00:00 | |
| OM5KV | 2026-09-02 12:28:42 | 44.86279 | 21.17014 | 33° | 15km/h | 25915m | 8.6m/s | -48.1°C | 1.3% | 0hPa | 5.6V | 00:00:00 | 00:00:00 | 00:00:00 | |
| OM5KV | 2026-09-02 12:28:37 | 44.86260 | 21.17014 | 354° | 11km/h | 25881m | 7.0m/s | -48.2°C | 1.4% | 0hPa | 5.6V | 00:00:00 | 00:00:00 | 00:00:00 | |
| OM5KV | 2026-09-02 12:28:32 | 44.86241 | 21.17006 | 344° | 13km/h | 25847m | 8.0m/s | -48.4°C | 1.4% | 0hPa | 5.6V | 00:00:00 | 00:00:00 | 00:00:00 | |
| OM5KV | 2026-09-02 12:28:19 | 44.86204 | 21.17042 | 345° | 16km/h | 25759m | 7.5m/s | -48.5°C | 1.4% | 0hPa | 5.6V | 00:00:00 | 00:00:00 | 00:00:00 | |
| OM5KV | 2026-09-02 12:28:16 | 44.86197 | 21.17051 | 261° | 7km/h | 25742m | 6.6m/s | -48.3°C | 1.4% | 0hPa | 5.6V | 00:00:00 | 00:00:00 | 00:00:00 | |
| OM5KV | 2026-09-02 12:28:13 | 44.86207 | 21.17054 | 190° | 15km/h | 25720m | 5.4m/s | -48.6°C | 1.4% | 0hPa | 5.6V | 00:00:00 | 00:00:00 | 00:00:00 | |
| OM5KV | 2026-09-02 12:28:10 | 44.86206 | 21.17061 | 337° | 20km/h | 25699m | 7.8m/s | -48.4°C | 1.4% | 0hPa | 5.6V | 00:00:00 | 00:00:00 | 00:00:00 | |
| OM5KV | 2026-09-02 12:27:55 | 44.86195 | 21.17085 | 303° | 22km/h | 25598m | 4.3m/s | -48.8°C | 1.3% | 0hPa | 5.6V | 00:00:00 | 00:00:00 | 00:00:00 | |
| OM5KV | 2026-09-02 12:27:52 | 44.86196 | 21.17102 | 212° | 18km/h | 25579m | 5.9m/s | -48.5°C | 1.3% | 0hPa | 5.6V | 00:00:00 | 00:00:00 | 00:00:00 | |
| OM5KV | 2026-09-02 12:27:45 | 44.86199 | 21.17094 | 320° | 7km/h | 25529m | 7.7m/s | -48.7°C | 1.3% | 0hPa | 5.6V | 00:00:00 | 00:00:00 | 00:00:00 | |
| OM5KV | 2026-09-02 12:27:42 | 44.86199 | 21.17102 | 236° | 13km/h | 25508m | 7.3m/s | -48.5°C | 1.2% | 0hPa | 5.6V | 00:00:00 | 00:00:00 | 00:00:00 | |
| OM5KV | 2026-09-02 12:27:41 | 44.86202 | 21.17106 | 230° | 15km/h | 25501m | 7.5m/s | -48.5°C | 1.2% | 0hPa | 5.6V | 00:00:00 | 00:00:00 | 00:00:00 | |
| OM5KV | 2026-09-02 12:27:40 | 44.86204 | 21.17109 | 221° | 9km/h | 25497m | 3.6m/s | -48.4°C | 1.1% | 0hPa | 5.6V | 00:00:00 | 00:00:00 | 00:00:00 | |
| OM5KV | 2026-09-02 12:27:35 | 44.86199 | 21.17087 | 66° | 18km/h | 25464m | 5.3m/s | -48.7°C | 1.2% | 0hPa | 5.6V | 00:00:00 | 00:00:00 | 00:00:00 | |
| OM5KV | 2026-09-02 12:27:34 | 44.86197 | 21.17083 | 38° | 9km/h | 25457m | 7.1m/s | -48.5°C | 1.2% | 0hPa | 5.6V | 00:00:00 | 00:00:00 | 00:00:00 | |
| OM5KV | 2026-09-02 12:27:33 | 44.86195 | 21.17083 | 315° | 9km/h | 25449m | 8.5m/s | -48.6°C | 1.2% | 0hPa | 5.6V | 00:00:00 | 00:00:00 | 00:00:00 | |
| OM5KV | 2026-09-02 12:27:29 | 44.86197 | 21.17097 | 34° | 4km/h | 25422m | 5.8m/s | -48.8°C | 1.3% | 0hPa | 5.6V | 00:00:00 | 00:00:00 | 00:00:00 | |
| OM5KV | 2026-09-02 12:27:27 | 44.86193 | 21.17092 | 51° | 18km/h | 25408m | 7.0m/s | -48.6°C | 1.2% | 0hPa | 5.6V | 00:00:00 | 00:00:00 | 00:00:00 | |
| OM5KV | 2026-09-02 12:27:23 | 44.86180 | 21.17054 | 45° | 24km/h | 25373m | 9.4m/s | -49.1°C | 1.3% | 0hPa | 5.6V | 00:00:00 | 00:00:00 | 00:00:00 | |
| OM5KV | 2026-09-02 12:27:15 | 44.86156 | 21.17033 | 30° | 26km/h | 25326m | 5.0m/s | -48.9°C | 1.2% | 0hPa | 5.6V | 00:00:00 | 00:00:00 | 00:00:00 | |
| OM5KV | 2026-09-02 12:27:14 | 44.86150 | 21.17029 | 24° | 24km/h | 25319m | 7.3m/s | -48.8°C | 1.2% | 0hPa | 5.6V | 00:00:00 | 00:00:00 | 00:00:00 | |
| OM5KV | 2026-09-02 12:27:08 | 44.86125 | 21.17020 | 42° | 15km/h | 25276m | 6.9m/s | -48.8°C | 1.1% | 0hPa | 5.6V | 00:00:00 | 00:00:00 | 00:00:00 | |
| OM5KV | 2026-09-02 12:27:04 | 44.86116 | 21.17007 | 35° | 16km/h | 25247m | 6.0m/s | -48.8°C | 1.1% | 0hPa | 5.6V | 00:00:00 | 00:00:00 | 00:00:00 | |
| OM5KV | 2026-09-02 12:27:02 | 44.86109 | 21.17006 | 346° | 16km/h | 25234m | 8.3m/s | -48.9°C | 1.0% | 0hPa | 5.6V | 00:00:00 | 00:00:00 | 00:00:00 | |
| OM5KV | 2026-09-02 12:26:54 | 44.86079 | 21.17010 | 10° | 18km/h | 25177m | 7.3m/s | -49.4°C | 1.1% | 0hPa | 5.6V | 00:00:00 | 00:00:00 | 00:00:00 | |
| OM5KV | 2026-09-02 12:26:47 | 44.86046 | 21.17035 | 326° | 31km/h | 25132m | 4.6m/s | -49.6°C | 1.0% | 0hPa | 5.6V | 00:00:00 | 00:00:00 | 00:00:00 | |
| OM5KV | 2026-09-02 12:26:44 | 44.86029 | 21.17040 | 17° | 18km/h | 25112m | 5.7m/s | -49.7°C | 1.1% | 0hPa | 5.6V | 00:00:00 | 00:00:00 | 00:00:00 | |
| OM5KV | 2026-09-02 12:26:36 | 44.86001 | 21.17055 | 334° | 31km/h | 25056m | 8.4m/s | -50.3°C | 1.1% | 0hPa | 5.6V | 00:00:00 | 00:00:00 | 00:00:00 | |
| OM5KV | 2026-09-02 12:26:33 | 44.85983 | 21.17068 | 336° | 13km/h | 25039m | 8.0m/s | -50.1°C | 1.1% | 0hPa | 5.6V | 00:00:00 | 00:00:00 | 00:00:00 | |
| OM5KV | 2026-09-02 12:26:32 | 44.85982 | 21.17069 | 175° | 4km/h | 25031m | 8.0m/s | -49.9°C | 1.1% | 0hPa | 5.6V | 00:00:00 | 00:00:00 | 00:00:00 | |
| OM5KV | 2026-09-02 12:26:25 | 44.85980 | 21.17075 | 348° | 27km/h | 24983m | 6.2m/s | -50.0°C | 1.2% | 0hPa | 5.6V | 00:00:00 | 00:00:00 | 00:00:00 | |
| OM5KV | 2026-09-02 12:26:24 | 44.85973 | 21.17077 | 342° | 31km/h | 24975m | 7.5m/s | -49.8°C | 1.1% | 0hPa | 5.6V | 00:00:00 | 00:00:00 | 00:00:00 | |
| OM5KV | 2026-09-02 12:26:19 | 44.85964 | 21.17090 | 136° | 11km/h | 24943m | 5.6m/s | -50.2°C | 1.2% | 0hPa | 5.6V | 00:00:00 | 00:00:00 | 00:00:00 | |
| OM5KV | 2026-09-02 12:26:14 | 44.85959 | 21.17093 | 335° | 15km/h | 24911m | 7.9m/s | -49.8°C | 1.1% | 0hPa | 5.6V | 00:00:00 | 00:00:00 | 00:00:00 | |
| OM5KV | 2026-09-02 12:26:13 | 44.85955 | 21.17096 | 325° | 15km/h | 24905m | 5.6m/s | -49.7°C | 1.1% | 0hPa | 5.6V | 00:00:00 | 00:00:00 | 00:00:00 | |
| OM5KV | 2026-09-02 12:26:06 | 44.85953 | 21.17111 | 162° | 15km/h | 24860m | 2.9m/s | -49.4°C | 0.7% | 0hPa | 5.6V | 00:00:00 | 00:00:00 | 00:00:00 | |
| OM5KV | 2026-09-02 12:26:05 | 44.85956 | 21.17110 | 162° | 5km/h | 24855m | 5.6m/s | -49.6°C | 0.7% | 0hPa | 5.6V | 00:00:00 | 00:00:00 | 00:00:00 | |
| OM5KV | 2026-09-02 12:25:57 | 44.85945 | 21.17142 | 147° | 13km/h | 24799m | 6.3m/s | -50.3°C | 0.8% | 0hPa | 5.6V | 00:00:00 | 00:00:00 | 00:00:00 | |
| OM5KV | 2026-09-02 12:25:48 | 44.85934 | 21.17161 | 0° | 0km/h | 24743m | 5.8m/s | -50.1°C | 0.7% | 0hPa | 5.6V | 00:00:00 | 00:00:00 | 00:00:00 | |
| OM5KV | 2026-09-02 12:25:45 | 44.85936 | 21.17148 | 109° | 24km/h | 24720m | 7.0m/s | -50.6°C | 0.9% | 0hPa | 5.6V | 00:00:00 | 00:00:00 | 00:00:00 | |
| OM5KV | 2026-09-02 12:25:41 | 44.85936 | 21.17136 | 311° | 18km/h | 24696m | 9.1m/s | -50.4°C | 0.9% | 0hPa | 5.6V | 00:00:00 | 00:00:00 | 00:00:00 | |
| OM5KV | 2026-09-02 12:25:40 | 44.85932 | 21.17143 | 300° | 31km/h | 24689m | 7.1m/s | -50.3°C | 0.9% | 0hPa | 5.6V | 00:00:00 | 00:00:00 | 00:00:00 | |
| OM5KV | 2026-09-02 12:25:37 | 44.85926 | 21.17164 | 0° | 0km/h | 24674m | 5.6m/s | -50.1°C | 0.8% | 0hPa | 5.6V | 00:00:00 | 00:00:00 | 00:00:00 | |
| OM5KV | 2026-09-02 12:25:33 | 44.85934 | 21.17113 | 124° | 29km/h | 24641m | 3.0m/s | -50.6°C | 0.9% | 0hPa | 5.6V | 00:00:00 | 00:00:00 | 00:00:00 | |
| OE3JTB-15 | 2026-09-02 12:25:24 | 44.85924 | 21.17081 | 127° | 15km/h | 24561m | 5.4m/s | -49.6°C | 0% | 0hPa | 5.6V | 00:00:00 | 00:00:00 | 00:00:00 | |
| OM5KV | 2026-09-02 12:25:17 | 44.85927 | 21.17080 | 319° | 16km/h | 24540m | 9.6m/s | -50.2°C | 1.1% | 0hPa | 5.6V | 00:00:00 | 00:00:00 | 00:00:00 | |
| OM5KV | 2026-09-02 12:25:14 | 44.85908 | 21.17097 | 333° | 26km/h | 24523m | 5.1m/s | -50.4°C | 1.2% | 0hPa | 5.6V | 00:00:00 | 00:00:00 | 00:00:00 | |
| OM5KV | 2026-09-02 12:25:12 | 44.85903 | 21.17099 | 105° | 7km/h | 24510m | 7.3m/s | -50.3°C | 1.2% | 0hPa | 5.6V | 00:00:00 | 00:00:00 | 00:00:00 | |
| OM5KV | 2026-09-02 12:25:06 | 44.85914 | 21.17070 | 327° | 5km/h | 24471m | 5.8m/s | -50.2°C | 1.1% | 0hPa | 5.6V | 00:00:00 | 00:00:00 | 00:00:00 | |
| OM5KV | 2026-09-02 12:25:02 | 44.85899 | 21.17071 | 16° | 9km/h | 24444m | 7.5m/s | -50.6°C | 1.3% | 0hPa | 5.6V | 00:00:00 | 00:00:00 | 00:00:00 | |
| OM5KV | 2026-09-02 12:24:58 | 44.85905 | 21.17055 | 113° | 9km/h | 24412m | 5.3m/s | -50.1°C | 1.1% | 0hPa | 5.6V | 00:00:00 | 00:00:00 | 00:00:00 | |
| OM5KV | 2026-09-02 12:24:49 | 44.85889 | 21.17056 | 351° | 13km/h | 24362m | 6.5m/s | -50.9°C | 1.3% | 0hPa | 5.6V | 00:00:00 | 00:00:00 | 00:00:00 | |
| OM5KV | 2026-09-02 12:24:43 | 44.85890 | 21.17052 | 3° | 9km/h | 24314m | 6.6m/s | -50.4°C | 1.2% | 0hPa | 5.6V | 00:00:00 | 00:00:00 | 00:00:00 | |
| OM5KV | 2026-09-02 12:24:36 | 44.85871 | 21.17065 | 256° | 18km/h | 24275m | 8.3m/s | -50.7°C | 1.1% | 0hPa | 5.6V | 00:00:00 | 00:00:00 | 00:00:00 | |
| OM5KV | 2026-09-02 12:24:33 | 44.85888 | 21.17090 | 218° | 7km/h | 24251m | 6.7m/s | -50.5°C | 1.1% | 0hPa | 5.6V | 00:00:00 | 00:00:00 | 00:00:00 | |
| OM5KV | 2026-09-02 12:24:26 | 44.85868 | 21.17100 | 307° | 22km/h | 24212m | 6.4m/s | -50.8°C | 1.2% | 0hPa | 5.6V | 00:00:00 | 00:00:00 | 00:00:00 | |
| OM5KV | 2026-09-02 12:24:13 | 44.85880 | 21.17146 | 273° | 18km/h | 24129m | 8.1m/s | -50.4°C | 1.0% | 0hPa | 5.6V | 00:00:00 | 00:00:00 | 00:00:00 | |
| OM5KV | 2026-09-02 12:24:08 | 44.85892 | 21.17147 | 129° | 24km/h | 24097m | 6.6m/s | -50.3°C | 1.0% | 0hPa | 5.6V | 00:00:00 | 00:00:00 | 00:00:00 | |
| OM5KV | 2026-09-02 12:23:57 | 44.85903 | 21.17150 | 82° | 20km/h | 24025m | 6.9m/s | -50.3°C | 0.9% | 0hPa | 5.6V | 00:00:00 | 00:00:00 | 00:00:00 | |
| OE3JTB-15 | 2026-09-02 12:22:51 | 44.85888 | 21.17171 | 98° | 9km/h | 23562m | 6.5m/s | -49.5°C | 0% | 0hPa | 5.6V | 00:00:00 | 00:00:00 | 00:00:00 | |
| OE3JTB-15 | 2026-09-02 12:22:20 | 44.85872 | 21.17144 | 34° | 11km/h | 23371m | 3.0m/s | -49.7°C | 0% | 0hPa | 5.6V | 00:00:00 | 00:00:00 | 00:00:00 | |
| OE3JTB-15 | 2026-09-02 12:21:21 | 44.85967 | 21.17207 | 153° | 16km/h | 23008m | 7.3m/s | -50.8°C | 0% | 0hPa | 5.6V | 00:00:00 | 00:00:00 | 00:00:00 | |
| OE3JTB-15 | 2026-09-02 12:20:50 | 44.85995 | 21.17128 | 32° | 13km/h | 22812m | 4.7m/s | -51.9°C | 0% | 0hPa | 5.6V | 00:00:00 | 00:00:00 | 00:00:00 | |
| OE3JTB-15 | 2026-09-02 12:20:19 | 44.85999 | 21.17123 | 145° | 15km/h | 22620m | 5.2m/s | -52.1°C | 0% | 0hPa | 5.6V | 00:00:00 | 00:00:00 | 00:00:00 | |
| OE3JTB-15 | 2026-09-02 12:19:45 | 44.85992 | 21.17023 | 135° | 18km/h | 22402m | 7.5m/s | -51.8°C | 0% | 0hPa | 5.6V | 00:00:00 | 00:00:00 | 00:00:00 | |
| OE3JTB-15 | 2026-09-02 12:19:16 | 44.86055 | 21.16872 | 115° | 29km/h | 22225m | 3.9m/s | -52.1°C | 0% | 0hPa | 5.6V | 00:00:00 | 00:00:00 | 00:00:00 | |
| OE3JTB-15 | 2026-09-02 12:18:48 | 44.86093 | 21.16606 | 89° | 26km/h | 22043m | 5.4m/s | -52.6°C | 0% | 0hPa | 5.6V | 00:00:00 | 00:00:00 | 00:00:00 | |
| OE3JTB-15 | 2026-09-02 12:18:18 | 44.85974 | 21.16398 | 39° | 38km/h | 21854m | 7.0m/s | -53.0°C | 0% | 0hPa | 5.6V | 00:00:00 | 00:00:00 | 00:00:00 | |
| OE3JTB-15 | 2026-09-02 12:17:50 | 44.85764 | 21.16302 | 19° | 18km/h | 21682m | 6.6m/s | -52.8°C | 0% | 0hPa | 5.6V | 00:00:00 | 00:00:00 | 00:00:00 | |
| OE3JTB-15 | 2026-09-02 12:17:07 | 44.85554 | 21.16356 | 338° | 11km/h | 21422m | 5.4m/s | -51.9°C | 0% | 0hPa | 5.6V | 00:00:00 | 00:00:00 | 00:00:00 | |
| OE3JTB-15 | 2026-09-02 12:16:35 | 44.85523 | 21.16396 | 98° | 11km/h | 21219m | 7.4m/s | -52.1°C | 0% | 0hPa | 5.7V | 00:00:00 | 00:00:00 | 00:00:00 | |
| OE3JTB-15 | 2026-09-02 12:13:32 | 44.85227 | 21.16326 | 58° | 13km/h | 20112m | 3.7m/s | -52.9°C | 0% | 0hPa | 5.7V | 00:00:00 | 00:00:00 | 00:00:00 | |
| OE3JTB-15 | 2026-09-02 12:12:23 | 44.85193 | 21.16061 | 117° | 18km/h | 19705m | 6.9m/s | -55.6°C | 0% | 0hPa | 5.7V | 00:00:00 | 00:00:00 | 00:00:00 | |
| OE3JTB-15 | 2026-09-02 12:11:54 | 44.85201 | 21.15924 | 129° | 16km/h | 19543m | 5.6m/s | -54.6°C | 0% | 0hPa | 5.7V | 00:00:00 | 00:00:00 | 00:00:00 | |
| OE3JTB-15 | 2026-09-02 12:11:22 | 44.85277 | 21.15762 | 133° | 22km/h | 19347m | 6.8m/s | -54.9°C | 0% | 0hPa | 5.7V | 00:00:00 | 00:00:00 | 00:00:00 | |
| OE3JTB-15 | 2026-09-02 12:08:30 | 44.85618 | 21.14077 | 93° | 22km/h | 18319m | 6.3m/s | -54.2°C | 0% | 0hPa | 5.7V | 00:00:00 | 00:00:00 | 00:00:00 | |
| OE3JTB-15 | 2026-09-02 12:07:56 | 44.85638 | 21.13864 | 120° | 35km/h | 18127m | 8.6m/s | -53.6°C | 0% | 0hPa | 5.7V | 00:00:00 | 00:00:00 | 00:00:00 | |
| OE3JTB-15 | 2026-09-02 12:07:27 | 44.85727 | 21.13545 | 114° | 58km/h | 17951m | 6.6m/s | -54.5°C | 0% | 0hPa | 5.7V | 00:00:00 | 00:00:00 | 00:00:00 | |
| OE3JTB-15 | 2026-09-02 12:06:57 | 44.85771 | 21.12952 | 80° | 60km/h | 17786m | 5.2m/s | -54.9°C | 0% | 0hPa | 5.7V | 00:00:00 | 00:00:00 | 00:00:00 | |
| OE3JTB-15 | 2026-09-02 12:06:26 | 44.85627 | 21.12292 | 67° | 57km/h | 17611m | 5.9m/s | -55.2°C | 0% | 0hPa | 5.7V | 00:00:00 | 00:00:00 | 00:00:00 | |
| OE3JTB-15 | 2026-09-02 12:05:57 | 44.85473 | 21.11762 | 63° | 49km/h | 17453m | 6.1m/s | -56.0°C | 0% | 0hPa | 5.7V | 00:00:00 | 00:00:00 | 00:00:00 | |
| OE3JTB-15 | 2026-09-02 12:03:23 | 44.85114 | 21.09656 | 88° | 57km/h | 16595m | 7.7m/s | -57.0°C | 0% | 0hPa | 5.7V | 00:00:00 | 00:00:00 | 00:00:00 | |
| LZ4TU-5 | 2026-09-02 11:47:49 | 44.80478 | 20.81479 | 80° | 113km/h | 11529m | 2.8m/s | -52.6°C | 0% | 0hPa | 0V | 00:00:00 | 00:00:00 | 00:00:00 |